Avon, Indiana
Current Conditions -  °F | °C
As of 11:53 PM on Tuesday 25 Nov 2014 (Local Time) from KEYE Reporting Station
Overcast Overcast  
Wind Chill: -3°   Ceiling: 1400
Heat Index: -3°   Visibility: 10mi
Dew Point: -6°   Wind: 0mph
Humidity: 81%   Direction: NA
Pressure: 30.19"   Gusts: NA
Location:  39.76°N, 86.4°W
Report Text: KEYE 260453Z AUTO 00000KT 10SM OVC014 M03/M06 A3019 RMK AO2 SLP232 T10331061 400221033 $
Loading
Personal Weather Stations






























Interactive Weather Map New forecast layout! Learn more

10-Day Weather Forecast

Advertisements
Track Severe Weather on mobile